Terminal Aerodrome Forecast
Issued by NWS

Home | Current Version | Previous Version | Text Only | Print | Product List | Glossary On
Versions: 1 2 3 4 5 6 7 8 9 10 11 12
000
FTUS42 KGSP 032327
TAFAND
TAF
KAND 032327Z 0400/0424 00000KT P6SM -RA OVC060
     FM040600 08003KT 6SM -RA BR OVC035
     FM040900 07004KT 4SM -RA BR OVC015
     FM041600 08007KT 2SM RA BR OVC007
     FM042000 07007KT 2SM RA BR OVC003=

USA.gov is the U.S. government's official web portal to all federal, state and local government web resources and services.